sensor_id;sensor_type;location;lat;lon;timestamp;pressure;altitude;pressure_sealevel;temperature;humidity
47726;BME280;33483;48.294;16.388;2023-05-25T00:01:09;100013.50;;;11.45;100.00
47726;BME280;33483;48.294;16.388;2023-05-25T00:03:40;100027.13;;;11.43;100.00
47726;BME280;33483;48.294;16.388;2023-05-25T00:06:08;100032.69;;;11.43;100.00
47726;BME280;33483;48.294;16.388;2023-05-25T00:08:37;100028.38;;;11.47;100.00
47726;BME280;33483;48.294;16.388;2023-05-25T00:11:06;100023.09;;;11.44;100.00
47726;BME280;33483;48.294;16.388;2023-05-25T00:13:33;100029.53;;;11.33;100.00
47726;BME280;33483;48.294;16.388;2023-05-25T00:16:00;100033.59;;;11.26;100.00
47726;BME280;33483;48.294;16.388;2023-05-25T00:18:27;100030.16;;;11.20;100.00
47726;BME280;33483;48.294;16.388;2023-05-25T00:20:57;100028.88;;;11.21;100.00
47726;BME280;33483;48.294;16.388;2023-05-25T00:23:24;100019.50;;;11.24;100.00
47726;BME280;33483;48.294;16.388;2023-05-25T00:25:51;100026.66;;;11.14;100.00
47726;BME280;33483;48.294;16.388;2023-05-25T00:28:19;100023.16;;;11.14;100.00
47726;BME280;33483;48.294;16.388;2023-05-25T00:30:46;100027.19;;;11.13;100.00
47726;BME280;33483;48.294;16.388;2023-05-25T00:33:14;100029.00;;;11.10;100.00
47726;BME280;33483;48.294;16.388;2023-05-25T00:35:42;100027.25;;;11.07;100.00
47726;BME280;33483;48.294;16.388;2023-05-25T00:38:13;100024.25;;;11.05;100.00
47726;BME280;33483;48.294;16.388;2023-05-25T00:40:40;100024.94;;;11.11;100.00
47726;BME280;33483;48.294;16.388;2023-05-25T00:43:07;100020.88;;;11.12;100.00
47726;BME280;33483;48.294;16.388;2023-05-25T00:45:35;100028.94;;;11.16;100.00
47726;BME280;33483;48.294;16.388;2023-05-25T00:48:02;100032.22;;;11.14;100.00
47726;BME280;33483;48.294;16.388;2023-05-25T00:50:40;100036.28;;;11.13;100.00
47726;BME280;33483;48.294;16.388;2023-05-25T00:53:09;100040.09;;;11.10;100.00
47726;BME280;33483;48.294;16.388;2023-05-25T00:55:44;100039.88;;;11.08;100.00
47726;BME280;33483;48.294;16.388;2023-05-25T00:58:15;100042.41;;;11.06;100.00
47726;BME280;33483;48.294;16.388;2023-05-25T01:00:43;100035.03;;;11.09;100.00
47726;BME280;33483;48.294;16.388;2023-05-25T01:03:13;100036.00;;;11.17;100.00
47726;BME280;33483;48.294;16.388;2023-05-25T01:05:44;100027.91;;;11.19;100.00
47726;BME280;33483;48.294;16.388;2023-05-25T01:08:13;100035.66;;;11.26;100.00
47726;BME280;33483;48.294;16.388;2023-05-25T01:10:43;100040.44;;;11.25;100.00
47726;BME280;33483;48.294;16.388;2023-05-25T01:13:14;100028.81;;;11.27;100.00
47726;BME280;33483;48.294;16.388;2023-05-25T01:15:43;100030.03;;;11.31;100.00
47726;BME280;33483;48.294;16.388;2023-05-25T01:18:13;100041.59;;;11.35;100.00
47726;BME280;33483;48.294;16.388;2023-05-25T01:23:50;100037.56;;;11.37;100.00
47726;BME280;33483;48.294;16.388;2023-05-25T01:26:18;100051.34;;;11.42;100.00
47726;BME280;33483;48.294;16.388;2023-05-25T01:28:48;100043.56;;;11.41;100.00
47726;BME280;33483;48.294;16.388;2023-05-25T01:31:17;100039.00;;;11.43;100.00
47726;BME280;33483;48.294;16.388;2023-05-25T01:33:50;100042.53;;;11.44;100.00
47726;BME280;33483;48.294;16.388;2023-05-25T01:36:18;100047.63;;;11.40;100.00
47726;BME280;33483;48.294;16.388;2023-05-25T01:38:45;100046.09;;;11.38;100.00
47726;BME280;33483;48.294;16.388;2023-05-25T01:41:12;100038.59;;;11.33;100.00
47726;BME280;33483;48.294;16.388;2023-05-25T01:43:39;100035.50;;;11.37;100.00
47726;BME280;33483;48.294;16.388;2023-05-25T01:46:29;100045.66;;;11.34;100.00
47726;BME280;33483;48.294;16.388;2023-05-25T01:51:46;100034.22;;;11.44;100.00
47726;BME280;33483;48.294;16.388;2023-05-25T01:54:18;100039.47;;;11.47;100.00
47726;BME280;33483;48.294;16.388;2023-05-25T01:56:46;100030.38;;;11.47;100.00
47726;BME280;33483;48.294;16.388;2023-05-25T01:59:15;100034.41;;;11.46;100.00
47726;BME280;33483;48.294;16.388;2023-05-25T02:01:45;100032.41;;;11.46;100.00
47726;BME280;33483;48.294;16.388;2023-05-25T02:04:14;100034.41;;;11.46;100.00
47726;BME280;33483;48.294;16.388;2023-05-25T02:06:43;100025.59;;;11.47;100.00
47726;BME280;33483;48.294;16.388;2023-05-25T02:09:17;100014.00;;;11.43;100.00
47726;BME280;33483;48.294;16.388;2023-05-25T02:11:45;100021.13;;;11.38;100.00
47726;BME280;33483;48.294;16.388;2023-05-25T02:14:12;100023.88;;;11.38;100.00
47726;BME280;33483;48.294;16.388;2023-05-25T02:16:39;100025.41;;;11.40;100.00
47726;BME280;33483;48.294;16.388;2023-05-25T02:19:11;100033.78;;;11.34;100.00
47726;BME280;33483;48.294;16.388;2023-05-25T02:21:41;100041.13;;;11.31;100.00
47726;BME280;33483;48.294;16.388;2023-05-25T02:24:08;100036.09;;;11.30;100.00
47726;BME280;33483;48.294;16.388;2023-05-25T02:26:36;100041.19;;;11.26;100.00
47726;BME280;33483;48.294;16.388;2023-05-25T02:29:04;100043.44;;;11.27;100.00
47726;BME280;33483;48.294;16.388;2023-05-25T02:31:31;100046.50;;;11.24;100.00
47726;BME280;33483;48.294;16.388;2023-05-25T02:34:01;100047.53;;;11.21;100.00
47726;BME280;33483;48.294;16.388;2023-05-25T02:36:28;100052.34;;;11.20;100.00
47726;BME280;33483;48.294;16.388;2023-05-25T02:38:58;100057.44;;;11.16;100.00
47726;BME280;33483;48.294;16.388;2023-05-25T02:41:25;100046.63;;;11.13;100.00
47726;BME280;33483;48.294;16.388;2023-05-25T02:43:53;100053.97;;;11.10;100.00
47726;BME280;33483;48.294;16.388;2023-05-25T02:46:20;100048.13;;;11.14;100.00
47726;BME280;33483;48.294;16.388;2023-05-25T02:48:49;100059.72;;;11.12;100.00
47726;BME280;33483;48.294;16.388;2023-05-25T02:51:16;100056.78;;;11.05;100.00
47726;BME280;33483;48.294;16.388;2023-05-25T02:53:44;100057.31;;;11.03;100.00
47726;BME280;33483;48.294;16.388;2023-05-25T02:56:11;100056.78;;;11.05;100.00
47726;BME280;33483;48.294;16.388;2023-05-25T02:58:39;100068.63;;;11.05;100.00
47726;BME280;33483;48.294;16.388;2023-05-25T03:01:11;100069.91;;;11.04;100.00
47726;BME280;33483;48.294;16.388;2023-05-25T03:03:53;100068.16;;;11.01;100.00
47726;BME280;33483;48.294;16.388;2023-05-25T03:06:23;100068.16;;;11.01;100.00
47726;BME280;33483;48.294;16.388;2023-05-25T03:09:06;100066.38;;;11.04;100.00
47726;BME280;33483;48.294;16.388;2023-05-25T03:11:33;100075.44;;;11.04;100.00
47726;BME280;33483;48.294;16.388;2023-05-25T03:14:03;100077.47;;;11.04;100.00
47726;BME280;33483;48.294;16.388;2023-05-25T03:16:32;100086.03;;;11.06;100.00
47726;BME280;33483;48.294;16.388;2023-05-25T03:19:06;100076.94;;;11.05;100.00
47726;BME280;33483;48.294;16.388;2023-05-25T03:21:38;100072.91;;;11.06;100.00
47726;BME280;33483;48.294;16.388;2023-05-25T03:24:05;100080.19;;;11.09;100.00
47726;BME280;33483;48.294;16.388;2023-05-25T03:26:34;100074.88;;;11.11;100.00
47726;BME280;33483;48.294;16.388;2023-05-25T03:29:05;100074.59;;;11.15;100.00
47726;BME280;33483;48.294;16.388;2023-05-25T03:31:36;100067.28;;;11.17;100.00
47726;BME280;33483;48.294;16.388;2023-05-25T03:34:03;100079.06;;;11.23;100.00
47726;BME280;33483;48.294;16.388;2023-05-25T03:36:34;100074.41;;;11.31;100.00
47726;BME280;33483;48.294;16.388;2023-05-25T03:39:04;100078.81;;;11.46;100.00
47726;BME280;33483;48.294;16.388;2023-05-25T03:41:40;100081.38;;;12.10;100.00
47726;BME280;33483;48.294;16.388;2023-05-25T03:44:09;100080.47;;;12.58;100.00
47726;BME280;33483;48.294;16.388;2023-05-25T03:46:37;100079.84;;;12.97;100.00
47726;BME280;33483;48.294;16.388;2023-05-25T03:49:04;100096.41;;;13.34;100.00
47726;BME280;33483;48.294;16.388;2023-05-25T03:51:32;100100.94;;;13.50;100.00
47726;BME280;33483;48.294;16.388;2023-05-25T03:53:59;100106.00;;;13.65;100.00
47726;BME280;33483;48.294;16.388;2023-05-25T03:56:26;100108.56;;;13.89;100.00
47726;BME280;33483;48.294;16.388;2023-05-25T03:58:55;100114.34;;;13.91;100.00
47726;BME280;33483;48.294;16.388;2023-05-25T04:01:22;100112.19;;;14.10;100.00
47726;BME280;33483;48.294;16.388;2023-05-25T04:03:52;100105.03;;;13.75;100.00
47726;BME280;33483;48.294;16.388;2023-05-25T04:06:20;100117.22;;;13.46;100.00
47726;BME280;33483;48.294;16.388;2023-05-25T04:08:48;100105.16;;;13.12;100.00
47726;BME280;33483;48.294;16.388;2023-05-25T04:11:15;100106.59;;;13.00;100.00
47726;BME280;33483;48.294;16.388;2023-05-25T04:13:46;100097.47;;;12.86;100.00
47726;BME280;33483;48.294;16.388;2023-05-25T04:16:13;100102.59;;;12.82;100.00
47726;BME280;33483;48.294;16.388;2023-05-25T04:18:41;100103.25;;;12.88;100.00
47726;BME280;33483;48.294;16.388;2023-05-25T04:21:08;100103.25;;;12.88;100.00
47726;BME280;33483;48.294;16.388;2023-05-25T04:23:36;100108.81;;;12.88;100.00
47726;BME280;33483;48.294;16.388;2023-05-25T04:26:05;100114.88;;;12.87;100.00
47726;BME280;33483;48.294;16.388;2023-05-25T04:28:39;100110.75;;;12.93;100.00
47726;BME280;33483;48.294;16.388;2023-05-25T04:31:18;100101.34;;;12.96;100.00
47726;BME280;33483;48.294;16.388;2023-05-25T04:33:51;100106.06;;;13.01;100.00
47726;BME280;33483;48.294;16.388;2023-05-25T04:36:26;100115.63;;;13.06;100.00
47726;BME280;33483;48.294;16.388;2023-05-25T04:38:54;100122.94;;;13.09;100.00
47726;BME280;33483;48.294;16.388;2023-05-25T04:41:22;100119.63;;;13.10;100.00
47726;BME280;33483;48.294;16.388;2023-05-25T04:43:55;100110.19;;;13.13;100.00
47726;BME280;33483;48.294;16.388;2023-05-25T04:46:43;100112.16;;;13.31;100.00
47726;BME280;33483;48.294;16.388;2023-05-25T04:49:17;100126.00;;;13.37;100.00
47726;BME280;33483;48.294;16.388;2023-05-25T04:51:44;100124.56;;;13.30;100.00
47726;BME280;33483;48.294;16.388;2023-05-25T04:54:13;100124.97;;;13.92;100.00
47726;BME280;33483;48.294;16.388;2023-05-25T04:56:40;100130.66;;;13.74;100.00
47726;BME280;33483;48.294;16.388;2023-05-25T04:59:08;100135.13;;;13.64;100.00
47726;BME280;33483;48.294;16.388;2023-05-25T05:01:35;100132.56;;;13.66;100.00
47726;BME280;33483;48.294;16.388;2023-05-25T05:04:10;100129.56;;;13.64;100.00
47726;BME280;33483;48.294;16.388;2023-05-25T05:06:37;100142.00;;;13.63;100.00
47726;BME280;33483;48.294;16.388;2023-05-25T05:09:06;100131.59;;;13.76;100.00
47726;BME280;33483;48.294;16.388;2023-05-25T05:11:34;100139.41;;;14.17;100.00
47726;BME280;33483;48.294;16.388;2023-05-25T05:14:03;100139.41;;;14.77;100.00
47726;BME280;33483;48.294;16.388;2023-05-25T05:16:30;100142.22;;;15.18;100.00
47726;BME280;33483;48.294;16.388;2023-05-25T05:19:01;100138.97;;;15.47;100.00
47726;BME280;33483;48.294;16.388;2023-05-25T05:21:29;100140.09;;;16.08;100.00
47726;BME280;33483;48.294;16.388;2023-05-25T05:23:57;100148.22;;;16.70;100.00
47726;BME280;33483;48.294;16.388;2023-05-25T05:26:24;100147.25;;;16.52;100.00
47726;BME280;33483;48.294;16.388;2023-05-25T05:28:51;100150.06;;;16.24;100.00
47726;BME280;33483;48.294;16.388;2023-05-25T05:31:19;100157.50;;;15.86;100.00
47726;BME280;33483;48.294;16.388;2023-05-25T05:33:47;100154.41;;;15.69;100.00
47726;BME280;33483;48.294;16.388;2023-05-25T05:36:16;100153.94;;;15.57;100.00
47726;BME280;33483;48.294;16.388;2023-05-25T05:38:44;100160.00;;;15.28;100.00
47726;BME280;33483;48.294;16.388;2023-05-25T05:41:13;100147.81;;;15.18;100.00
47726;BME280;33483;48.294;16.388;2023-05-25T05:43:46;100155.72;;;15.27;100.00
47726;BME280;33483;48.294;16.388;2023-05-25T05:46:13;100161.84;;;15.25;100.00
47726;BME280;33483;48.294;16.388;2023-05-25T05:48:41;100157.97;;;15.28;100.00
47726;BME280;33483;48.294;16.388;2023-05-25T05:51:08;100161.31;;;15.47;100.00
47726;BME280;33483;48.294;16.388;2023-05-25T05:53:36;100167.63;;;15.68;100.00
47726;BME280;33483;48.294;16.388;2023-05-25T05:56:04;100171.31;;;15.63;100.00
47726;BME280;33483;48.294;16.388;2023-05-25T05:58:32;100159.53;;;15.57;100.00
47726;BME280;33483;48.294;16.388;2023-05-25T06:00:59;100161.09;;;15.45;100.00
47726;BME280;33483;48.294;16.388;2023-05-25T06:03:30;100165.56;;;15.41;100.00
47726;BME280;33483;48.294;16.388;2023-05-25T06:05:57;100175.06;;;15.94;100.00
47726;BME280;33483;48.294;16.388;2023-05-25T06:08:25;100168.81;;;16.09;100.00
47726;BME280;33483;48.294;16.388;2023-05-25T06:10:53;100173.72;;;16.23;100.00
47726;BME280;33483;48.294;16.388;2023-05-25T06:13:22;100174.19;;;16.35;100.00
47726;BME280;33483;48.294;16.388;2023-05-25T06:15:51;100182.97;;;16.03;100.00
47726;BME280;33483;48.294;16.388;2023-05-25T06:18:22;100179.91;;;15.94;100.00
47726;BME280;33483;48.294;16.388;2023-05-25T06:20:52;100172.56;;;15.83;100.00
47726;BME280;33483;48.294;16.388;2023-05-25T06:23:19;100183.94;;;15.85;100.00
47726;BME280;33483;48.294;16.388;2023-05-25T06:25:47;100184.69;;;16.14;100.00
47726;BME280;33483;48.294;16.388;2023-05-25T06:28:15;100191.69;;;16.35;100.00
47726;BME280;33483;48.294;16.388;2023-05-25T06:30:42;100187.00;;;16.23;100.00
47726;BME280;33483;48.294;16.388;2023-05-25T06:33:10;100183.47;;;16.58;100.00
47726;BME280;33483;48.294;16.388;2023-05-25T06:35:41;100181.88;;;16.85;100.00
47726;BME280;33483;48.294;16.388;2023-05-25T06:38:09;100191.81;;;17.01;100.00
47726;BME280;33483;48.294;16.388;2023-05-25T06:40:37;100190.53;;;17.32;100.00
47726;BME280;33483;48.294;16.388;2023-05-25T06:43:05;100186.81;;;17.22;100.00
47726;BME280;33483;48.294;16.388;2023-05-25T06:46:01;100199.53;;;17.98;98.61
47726;BME280;33483;48.294;16.388;2023-05-25T06:48:31;100195.06;;;19.05;85.15
47726;BME280;33483;48.294;16.388;2023-05-25T06:50:58;100201.50;;;20.65;72.60
47726;BME280;33483;48.294;16.388;2023-05-25T06:53:25;100212.81;;;21.45;64.93
47726;BME280;33483;48.294;16.388;2023-05-25T06:55:52;100206.66;;;22.01;60.61
47726;BME280;33483;48.294;16.388;2023-05-25T06:58:20;100204.00;;;22.80;56.55
47726;BME280;33483;48.294;16.388;2023-05-25T07:00:47;100207.41;;;23.47;51.58
47726;BME280;33483;48.294;16.388;2023-05-25T07:03:14;100212.41;;;23.18;54.07
47726;BME280;33483;48.294;16.388;2023-05-25T07:05:42;100213.81;;;22.60;53.19
47726;BME280;33483;48.294;16.388;2023-05-25T07:08:10;100210.59;;;23.22;52.86
47726;BME280;33483;48.294;16.388;2023-05-25T07:10:37;100216.34;;;24.47;49.63
47726;BME280;33483;48.294;16.388;2023-05-25T07:13:04;100211.81;;;25.30;47.23
47726;BME280;33483;48.294;16.388;2023-05-25T07:15:31;100214.22;;;25.57;44.99
47726;BME280;33483;48.294;16.388;2023-05-25T07:17:59;100221.06;;;25.31;45.21
47726;BME280;33483;48.294;16.388;2023-05-25T07:20:26;100220.88;;;25.62;43.65
47726;BME280;33483;48.294;16.388;2023-05-25T07:22:58;100220.94;;;26.21;42.24
47726;BME280;33483;48.294;16.388;2023-05-25T07:25:25;100223.94;;;26.00;42.01
47726;BME280;33483;48.294;16.388;2023-05-25T07:27:52;100227.72;;;26.64;40.86
47726;BME280;33483;48.294;16.388;2023-05-25T07:30:20;100223.53;;;26.91;41.72
47726;BME280;33483;48.294;16.388;2023-05-25T07:32:48;100223.91;;;26.97;39.12
47726;BME280;33483;48.294;16.388;2023-05-25T07:35:18;100217.34;;;26.21;41.13
47726;BME280;33483;48.294;16.388;2023-05-25T07:37:45;100225.91;;;25.98;40.78
47726;BME280;33483;48.294;16.388;2023-05-25T07:40:12;100222.19;;;26.18;40.45
47726;BME280;33483;48.294;16.388;2023-05-25T07:42:40;100228.53;;;26.53;40.84
47726;BME280;33483;48.294;16.388;2023-05-25T07:45:08;100223.69;;;25.62;41.00
47726;BME280;33483;48.294;16.388;2023-05-25T07:47:38;100227.16;;;25.60;41.35
47726;BME280;33483;48.294;16.388;2023-05-25T07:50:05;100227.06;;;25.70;41.52
47726;BME280;33483;48.294;16.388;2023-05-25T07:52:35;100227.81;;;27.03;38.90
47726;BME280;33483;48.294;16.388;2023-05-25T07:55:07;100227.06;;;27.03;38.58
47726;BME280;33483;48.294;16.388;2023-05-25T07:57:39;100230.78;;;26.80;38.54
47726;BME280;33483;48.294;16.388;2023-05-25T08:00:08;100224.50;;;26.33;39.73
47726;BME280;33483;48.294;16.388;2023-05-25T08:02:42;100233.59;;;26.55;39.25
47726;BME280;33483;48.294;16.388;2023-05-25T08:05:09;100232.44;;;26.23;39.11
47726;BME280;33483;48.294;16.388;2023-05-25T08:07:37;100234.22;;;26.53;40.44
47726;BME280;33483;48.294;16.388;2023-05-25T08:10:07;100232.53;;;26.37;39.60
47726;BME280;33483;48.294;16.388;2023-05-25T08:12:35;100228.97;;;26.25;40.01
47726;BME280;33483;48.294;16.388;2023-05-25T08:15:15;100230.44;;;26.37;41.27
47726;BME280;33483;48.294;16.388;2023-05-25T08:17:42;100228.09;;;24.11;43.28
47726;BME280;33483;48.294;16.388;2023-05-25T08:20:10;100235.50;;;25.23;41.75
47726;BME280;33483;48.294;16.388;2023-05-25T08:22:37;100234.81;;;26.04;40.91
47726;BME280;33483;48.294;16.388;2023-05-25T08:25:04;100236.44;;;26.43;39.44
47726;BME280;33483;48.294;16.388;2023-05-25T08:27:32;100254.38;;;27.33;37.04
47726;BME280;33483;48.294;16.388;2023-05-25T08:30:04;100250.88;;;25.99;38.81
47726;BME280;33483;48.294;16.388;2023-05-25T08:32:34;100245.09;;;26.57;38.45
47726;BME280;33483;48.294;16.388;2023-05-25T08:35:01;100243.31;;;26.63;37.68
47726;BME280;33483;48.294;16.388;2023-05-25T08:37:34;100240.84;;;26.58;39.25
47726;BME280;33483;48.294;16.388;2023-05-25T08:40:01;100231.97;;;26.89;39.01
47726;BME280;33483;48.294;16.388;2023-05-25T08:42:31;100241.25;;;26.52;38.40
47726;BME280;33483;48.294;16.388;2023-05-25T08:44:58;100245.03;;;27.19;38.69
47726;BME280;33483;48.294;16.388;2023-05-25T08:47:25;100246.09;;;26.50;38.88
47726;BME280;33483;48.294;16.388;2023-05-25T08:49:55;100245.97;;;26.85;37.81
47726;BME280;33483;48.294;16.388;2023-05-25T08:52:23;100241.94;;;27.01;37.70
47726;BME280;33483;48.294;16.388;2023-05-25T08:54:55;100243.88;;;27.35;38.76
47726;BME280;33483;48.294;16.388;2023-05-25T09:00:09;100247.81;;;28.23;36.24
47726;BME280;33483;48.294;16.388;2023-05-25T09:02:41;100246.75;;;27.76;36.44
47726;BME280;33483;48.294;16.388;2023-05-25T09:05:11;100246.34;;;27.04;38.18
47726;BME280;33483;48.294;16.388;2023-05-25T09:07:40;100241.53;;;26.82;38.78
47726;BME280;33483;48.294;16.388;2023-05-25T09:10:07;100238.97;;;26.26;40.43
47726;BME280;33483;48.294;16.388;2023-05-25T09:12:39;100252.84;;;26.68;38.88
47726;BME280;33483;48.294;16.388;2023-05-25T09:15:09;100252.13;;;27.18;38.05
47726;BME280;33483;48.294;16.388;2023-05-25T09:17:39;100247.31;;;27.34;38.14
47726;BME280;33483;48.294;16.388;2023-05-25T09:20:09;100250.97;;;27.23;36.42
47726;BME280;33483;48.294;16.388;2023-05-25T09:22:37;100261.09;;;27.26;36.96
47726;BME280;33483;48.294;16.388;2023-05-25T09:25:05;100260.41;;;27.91;37.27
47726;BME280;33483;48.294;16.388;2023-05-25T09:27:34;100251.13;;;27.38;37.07
47726;BME280;33483;48.294;16.388;2023-05-25T09:30:01;100249.75;;;28.05;37.21
47726;BME280;33483;48.294;16.388;2023-05-25T09:32:30;100250.94;;;27.09;38.01
47726;BME280;33483;48.294;16.388;2023-05-25T09:35:13;100245.38;;;26.75;38.31
47726;BME280;33483;48.294;16.388;2023-05-25T09:37:41;100249.38;;;26.95;38.71
47726;BME280;33483;48.294;16.388;2023-05-25T09:40:11;100254.53;;;27.48;38.17
47726;BME280;33483;48.294;16.388;2023-05-25T09:42:41;100256.16;;;26.76;38.80
47726;BME280;33483;48.294;16.388;2023-05-25T09:45:08;100253.66;;;26.82;38.90
47726;BME280;33483;48.294;16.388;2023-05-25T09:47:35;100251.47;;;27.19;38.65
47726;BME280;33483;48.294;16.388;2023-05-25T09:50:04;100254.56;;;26.25;39.45
47726;BME280;33483;48.294;16.388;2023-05-25T09:52:31;100248.00;;;26.59;38.64
47726;BME280;33483;48.294;16.388;2023-05-25T09:54:58;100250.13;;;26.95;38.46
47726;BME280;33483;48.294;16.388;2023-05-25T09:57:28;100242.50;;;26.49;38.91
47726;BME280;33483;48.294;16.388;2023-05-25T09:59:55;100242.34;;;26.11;40.72
47726;BME280;33483;48.294;16.388;2023-05-25T10:02:25;100246.28;;;26.65;41.24
47726;BME280;33483;48.294;16.388;2023-05-25T10:04:52;100247.16;;;25.62;40.72
47726;BME280;33483;48.294;16.388;2023-05-25T10:07:19;100252.59;;;26.27;40.49
47726;BME280;33483;48.294;16.388;2023-05-25T10:09:46;100245.44;;;26.03;40.38
47726;BME280;33483;48.294;16.388;2023-05-25T10:12:18;100248.50;;;26.30;40.36
47726;BME280;33483;48.294;16.388;2023-05-25T10:14:48;100250.41;;;26.51;39.39
47726;BME280;33483;48.294;16.388;2023-05-25T10:17:22;100245.81;;;25.86;40.65
47726;BME280;33483;48.294;16.388;2023-05-25T10:19:53;100251.97;;;26.17;40.22
47726;BME280;33483;48.294;16.388;2023-05-25T10:27:26;100248.91;;;25.55;41.90
47726;BME280;33483;48.294;16.388;2023-05-25T10:29:55;100235.31;;;25.54;42.69
47726;BME280;33483;48.294;16.388;2023-05-25T10:32:25;100237.66;;;25.58;41.95
47726;BME280;33483;48.294;16.388;2023-05-25T10:34:52;100237.13;;;26.30;42.13
47726;BME280;33483;48.294;16.388;2023-05-25T10:37:22;100236.44;;;25.05;42.98
47726;BME280;33483;48.294;16.388;2023-05-25T10:39:49;100244.56;;;26.12;40.05
47726;BME280;33483;48.294;16.388;2023-05-25T10:42:17;100244.22;;;26.06;40.18
47726;BME280;33483;48.294;16.388;2023-05-25T10:44:49;100241.13;;;25.91;41.03
47726;BME280;33483;48.294;16.388;2023-05-25T10:47:16;100227.25;;;26.20;41.27
47726;BME280;33483;48.294;16.388;2023-05-25T10:49:51;100241.22;;;25.93;40.00
47726;BME280;33483;48.294;16.388;2023-05-25T10:52:19;100221.72;;;25.87;40.27
47726;BME280;33483;48.294;16.388;2023-05-25T10:54:47;100231.19;;;25.34;40.41
47726;BME280;33483;48.294;16.388;2023-05-25T10:57:18;100220.13;;;25.61;41.61
47726;BME280;33483;48.294;16.388;2023-05-25T10:59:49;100217.28;;;25.38;41.42
47726;BME280;33483;48.294;16.388;2023-05-25T11:02:20;100219.50;;;25.39;41.76
47726;BME280;33483;48.294;16.388;2023-05-25T11:04:50;100204.63;;;25.06;43.60
47726;BME280;33483;48.294;16.388;2023-05-25T11:07:53;100203.97;;;25.64;43.01
47726;BME280;33483;48.294;16.388;2023-05-25T11:21:13;100181.66;;;25.02;43.40
47726;BME280;33483;48.294;16.388;2023-05-25T11:26:26;100180.81;;;25.00;42.75
47726;BME280;33483;48.294;16.388;2023-05-25T11:28:54;100175.94;;;24.25;46.06
47726;BME280;33483;48.294;16.388;2023-05-25T11:31:28;100181.97;;;24.74;45.34
47726;BME280;33483;48.294;16.388;2023-05-25T11:33:59;100167.94;;;24.76;45.06
47726;BME280;33483;48.294;16.388;2023-05-25T11:36:30;100172.66;;;24.94;44.17
47726;BME280;33483;48.294;16.388;2023-05-25T11:38:59;100168.00;;;25.33;45.30
47726;BME280;33483;48.294;16.388;2023-05-25T11:41:51;100168.28;;;25.37;45.19
47726;BME280;33483;48.294;16.388;2023-05-25T11:44:27;100161.41;;;24.85;43.52
47726;BME280;33483;48.294;16.388;2023-05-25T11:46:54;100153.13;;;24.44;46.48
47726;BME280;33483;48.294;16.388;2023-05-25T11:49:27;100144.09;;;24.04;47.28
47726;BME280;33483;48.294;16.388;2023-05-25T11:52:03;100150.00;;;24.08;47.70
47726;BME280;33483;48.294;16.388;2023-05-25T11:54:36;100153.78;;;23.80;48.02
47726;BME280;33483;48.294;16.388;2023-05-25T11:57:20;100141.47;;;23.45;49.91
47726;BME280;33483;48.294;16.388;2023-05-25T11:59:54;100135.09;;;23.34;50.26
47726;BME280;33483;48.294;16.388;2023-05-25T12:02:22;100134.34;;;22.94;50.59
47726;BME280;33483;48.294;16.388;2023-05-25T12:07:24;100141.56;;;22.47;51.42
47726;BME280;33483;48.294;16.388;2023-05-25T12:10:07;100126.25;;;22.41;52.58
47726;BME280;33483;48.294;16.388;2023-05-25T12:12:48;100121.97;;;22.20;53.77
47726;BME280;33483;48.294;16.388;2023-05-25T12:15:19;100118.09;;;22.35;56.39
47726;BME280;33483;48.294;16.388;2023-05-25T12:17:47;100111.59;;;22.82;56.16
47726;BME280;33483;48.294;16.388;2023-05-25T12:20:15;100116.28;;;22.59;51.55
47726;BME280;33483;48.294;16.388;2023-05-25T12:22:43;100109.16;;;22.39;53.50
47726;BME280;33483;48.294;16.388;2023-05-25T12:25:11;100111.25;;;22.28;53.72
47726;BME280;33483;48.294;16.388;2023-05-25T12:27:39;100105.13;;;22.42;54.92
47726;BME280;33483;48.294;16.388;2023-05-25T12:30:07;100101.28;;;22.37;57.47
47726;BME280;33483;48.294;16.388;2023-05-25T12:32:54;100109.88;;;22.58;57.45
47726;BME280;33483;48.294;16.388;2023-05-25T12:35:28;100107.50;;;22.64;53.96
47726;BME280;33483;48.294;16.388;2023-05-25T12:38:08;100099.97;;;22.09;55.72
47726;BME280;33483;48.294;16.388;2023-05-25T12:40:35;100099.66;;;22.24;59.87
47726;BME280;33483;48.294;16.388;2023-05-25T12:43:02;100102.16;;;22.40;56.59
47726;BME280;33483;48.294;16.388;2023-05-25T12:45:32;100109.63;;;22.06;55.76
47726;BME280;33483;48.294;16.388;2023-05-25T12:48:01;100105.91;;;22.13;57.94
47726;BME280;33483;48.294;16.388;2023-05-25T12:50:28;100111.25;;;22.09;58.21
47726;BME280;33483;48.294;16.388;2023-05-25T12:52:59;100102.34;;;22.13;56.61
47726;BME280;33483;48.294;16.388;2023-05-25T12:55:30;100110.66;;;22.01;56.77
47726;BME280;33483;48.294;16.388;2023-05-25T12:58:02;100094.16;;;22.07;58.49
47726;BME280;33483;48.294;16.388;2023-05-25T13:00:31;100091.34;;;22.17;57.63
47726;BME280;33483;48.294;16.388;2023-05-25T13:02:59;100088.81;;;22.11;55.87
47726;BME280;33483;48.294;16.388;2023-05-25T13:05:27;100086.28;;;22.25;57.16
47726;BME280;33483;48.294;16.388;2023-05-25T13:07:55;100085.84;;;22.09;56.50
47726;BME280;33483;48.294;16.388;2023-05-25T13:10:22;100073.81;;;21.80;58.42
47726;BME280;33483;48.294;16.388;2023-05-25T13:12:50;100074.72;;;22.02;58.40
47726;BME280;33483;48.294;16.388;2023-05-25T13:15:19;100068.59;;;22.15;58.66
47726;BME280;33483;48.294;16.388;2023-05-25T13:17:47;100079.16;;;22.24;56.86